Current | Forecast
Updated: 11:00 PM GMT on October 19, 2019
Observed at Bissau, Guinea-Bissau
Temperature 28°C
Humidity 89%
Dew Point 26°C
Wind Variable at 4 km/h
Pressure 1011 hPa (Rising)
Conditions Partly Cloudy
Visibility 8.0 kilometers
UV 0 out of 16
Clouds (FEW) : 426 m
Yesterday's Maximum 32°C
Yesterday's Minimum 27°C approx.
Yesterday's Cooling Degree Days 20 approx.
Sunrise6:52 AM GMT
Sunset6:41 PM GMT
Moon Rise
Moon Set12:29 PM GMT
Moon PhaseMoon Phase
Waning Gibbous
Raw METARMETAR GGOV 192300Z VRB02KT 8000 FEW014 28/26 Q1011 NOSIG



Units: English | Metric

Find the Weather for any City, State or Zipcode, or Country:

U.S. State List | Severe Weather | Tropical Storms | Ski Conditions
United States | Canada | Central America | South America | Asia | Europe | Australia | Africa | Islands

Weather Underground

© Copyright 2019
The Weather Company, LLC